Time;durP1;ratioP1;P1;durP2;ratioP2;P2;SDS_P1;SDS_P2;PMS_P1;PMS_P2;Temp;Humidity;BMP_temperature;BMP_pressure;BME280_temperature;BME280_humidity;BME280_pressure;Samples;Min_cycle;Max_cycle;Signal;HPM_P1;HPM_P2
2022/09/11 00:01:12;;;;;;;1.95;0.50;;;;;;;12.60;100.00;98558.16;4485667;31;20096;-78
2022/09/11 00:03:41;;;;;;;1.25;0.68;;;;;;;12.57;100.00;98549.78;4485878;31;20118;-78
2022/09/11 00:06:11;;;;;;;1.15;0.70;;;;;;;12.61;100.00;98543.19;4498585;31;20164;-78
2022/09/11 00:08:39;;;;;;;0.50;0.50;;;;;;;12.53;100.00;98541.34;4485987;31;20270;-78
2022/09/11 00:11:15;;;;;;;0.57;0.50;;;;;;;12.55;100.00;98543.81;4485671;31;20477;-78
2022/09/11 00:13:44;;;;;;;0.50;0.50;;;;;;;12.54;100.00;98535.13;4485837;31;20132;-79
2022/09/11 00:16:17;;;;;;;1.98;0.50;;;;;;;12.56;100.00;98534.97;4485805;31;20127;-78
2022/09/11 00:18:45;;;;;;;2.65;0.50;;;;;;;12.58;100.00;98539.09;4485700;31;20140;-78
2022/09/11 00:21:13;;;;;;;0.73;0.40;;;;;;;12.59;100.00;98532.03;4485661;31;20115;-78
2022/09/11 00:23:40;;;;;;;0.55;0.40;;;;;;;12.62;100.00;98528.28;4485682;32;20445;-78
2022/09/11 00:26:08;;;;;;;0.55;0.55;;;;;;;12.61;100.00;98535.31;4485628;31;20160;-78
2022/09/11 00:28:38;;;;;;;0.88;0.45;;;;;;;12.57;100.00;98526.94;4485198;31;20104;-78
2022/09/11 00:31:07;;;;;;;0.40;0.40;;;;;;;12.57;100.00;98529.56;4485421;31;20612;-78
2022/09/11 00:33:36;;;;;;;4.18;0.50;;;;;;;12.54;100.00;98529.87;4485549;31;20687;-78
2022/09/11 00:36:06;;;;;;;0.57;0.50;;;;;;;12.54;100.00;98532.50;4485501;31;20156;-78
2022/09/11 00:38:35;;;;;;;1.02;0.50;;;;;;;12.53;100.00;98530.84;4484085;32;20493;-78
2022/09/11 00:41:06;;;;;;;2.35;0.60;;;;;;;12.54;100.00;98522.00;4485440;31;20093;-78
2022/09/11 00:44:01;;;;;;;0.80;0.50;;;;;;;12.54;100.00;98529.87;4485470;31;20193;-78
2022/09/11 00:46:37;;;;;;;1.70;0.65;;;;;;;12.54;100.00;98532.50;4485495;31;20430;-78
2022/09/11 00:49:13;;;;;;;1.12;0.50;;;;;;;12.55;100.00;98533.31;4485540;31;20092;-78
2022/09/11 00:51:41;;;;;;;1.45;0.80;;;;;;;12.54;100.00;98531.69;4485322;31;20499;-78
2022/09/11 00:54:11;;;;;;;4.18;0.70;;;;;;;12.56;100.00;98534.97;4484297;32;20120;-78
2022/09/11 00:56:40;;;;;;;0.68;0.50;;;;;;;12.56;100.00;98535.78;4485397;31;20192;-78
2022/09/11 00:59:08;;;;;;;0.65;0.50;;;;;;;12.56;100.00;98532.34;4485205;31;20120;-78
2022/09/11 01:01:36;;;;;;;1.35;0.45;;;;;;;12.57;100.00;98528.75;4483835;32;20159;-78
2022/09/11 01:04:04;;;;;;;0.98;0.50;;;;;;;12.52;100.00;98523.13;4486982;31;20080;-78
2022/09/11 01:06:32;;;;;;;1.45;0.70;;;;;;;12.51;100.00;98527.56;4496005;31;20218;-78
2022/09/11 01:08:59;;;;;;;1.75;0.50;;;;;;;12.45;100.00;98517.66;4485112;31;20502;-78
2022/09/11 01:12:04;;;;;;;1.73;0.60;;;;;;;12.40;100.00;98512.06;4485382;31;20163;-78
2022/09/11 01:14:41;;;;;;;1.00;0.60;;;;;;;12.35;100.00;98516.94;4474685;32;20206;-78
2022/09/11 01:17:20;;;;;;;0.98;0.60;;;;;;;12.36;100.00;98513.34;4483829;32;20088;-78
2022/09/11 01:20:22;;;;;;;0.57;0.57;;;;;;;12.28;100.00;98505.41;4484042;32;20122;-78
2022/09/11 01:23:22;;;;;;;1.05;0.50;;;;;;;12.40;100.00;98509.44;4485287;31;20167;-78
2022/09/11 01:26:23;;;;;;;0.43;0.43;;;;;;;12.29;100.00;98513.13;4423444;32;20111;-78
2022/09/11 01:28:58;;;;;;;1.75;0.65;;;;;;;12.32;100.00;98509.38;4389800;32;20132;-78
2022/09/11 01:31:29;;;;;;;1.02;0.50;;;;;;;12.30;100.00;98511.34;4378009;32;20170;-78
2022/09/11 01:33:59;;;;;;;0.50;0.50;;;;;;;12.31;100.00;98512.97;4390312;32;20118;-78
2022/09/11 01:36:30;;;;;;;0.40;0.40;;;;;;;12.25;100.00;98504.75;4390297;32;20140;-78
2022/09/11 01:39:00;;;;;;;2.47;0.70;;;;;;;12.20;100.00;98503.56;4390242;32;20570;-78
2022/09/11 01:41:32;;;;;;;2.47;0.57;;;;;;;12.12;100.00;98501.69;4390055;32;20128;-78
2022/09/11 01:44:05;;;;;;;2.33;0.60;;;;;;;12.13;100.00;98500.72;4389968;32;20169;-78
2022/09/11 01:46:54;;;;;;;5.03;0.85;;;;;;;12.10;100.00;98498.41;4378290;32;20145;-78
2022/09/11 01:49:37;;;;;;;0.80;0.60;;;;;;;12.06;100.00;98502.31;4389416;32;20507;-78
2022/09/11 01:52:12;;;;;;;0.60;0.50;;;;;;;11.99;100.00;98496.88;4377991;32;20140;-78
2022/09/11 01:54:44;;;;;;;1.62;0.77;;;;;;;11.98;100.00;98483.87;4377403;32;20143;-78
2022/09/11 01:57:24;;;;;;;0.83;0.60;;;;;;;11.97;100.00;98482.22;4377442;32;20153;-78
2022/09/11 01:59:56;;;;;;;0.62;0.55;;;;;;;11.95;100.00;98476.31;4390048;32;20484;-78
2022/09/11 02:02:33;;;;;;;0.70;0.52;;;;;;;11.96;100.00;98477.94;4387264;32;20291;-78
2022/09/11 02:05:06;;;;;;;3.08;0.70;;;;;;;11.95;100.00;98478.94;4423286;31;20155;-78
2022/09/11 02:07:38;;;;;;;0.52;0.52;;;;;;;11.93;100.00;98479.09;4487492;31;20104;-78
2022/09/11 02:10:10;;;;;;;0.70;0.55;;;;;;;12.00;100.00;98482.72;4484865;32;20100;-78
2022/09/11 02:12:43;;;;;;;1.30;0.82;;;;;;;12.04;100.00;98473.59;4484793;31;20104;-78
2022/09/11 02:15:14;;;;;;;1.80;0.62;;;;;;;12.06;100.00;98481.31;4484176;31;20117;-78
2022/09/11 02:17:47;;;;;;;1.15;0.80;;;;;;;12.14;100.00;98489.25;4484905;31;20418;-79
2022/09/11 02:20:14;;;;;;;1.85;0.75;;;;;;;12.22;100.00;98485.84;4484632;31;20130;-78
2022/09/11 02:22:42;;;;;;;0.70;0.60;;;;;;;12.26;100.00;98481.91;4484631;32;20100;-78
2022/09/11 02:25:09;;;;;;;0.37;0.37;;;;;;;12.31;100.00;98478.81;4484337;31;20172;-78
2022/09/11 02:27:37;;;;;;;0.60;0.60;;;;;;;12.34;100.00;98481.97;4484663;31;20092;-78
2022/09/11 02:30:07;;;;;;;0.62;0.60;;;;;;;12.33;100.00;98488.22;4484154;31;20479;-78
2022/09/11 02:32:35;;;;;;;0.50;0.50;;;;;;;12.35;100.00;98474.91;4483157;32;20104;-78
2022/09/11 02:35:05;;;;;;;0.70;0.60;;;;;;;12.34;100.00;98481.16;4483028;32;20118;-78
2022/09/11 02:37:39;;;;;;;2.20;0.88;;;;;;;12.35;100.00;98477.53;4483294;32;20092;-78
2022/09/11 02:40:25;;;;;;;1.62;0.80;;;;;;;12.37;100.00;98472.94;4483208;32;20108;-78
2022/09/11 02:43:12;;;;;;;1.10;0.77;;;;;;;12.39;100.00;98478.88;4484670;31;20092;-78
2022/09/11 02:46:09;;;;;;;1.55;0.85;;;;;;;12.33;100.00;98475.06;4484334;31;20450;-78
2022/09/11 02:49:08;;;;;;;4.95;0.95;;;;;;;12.33;100.00;98475.06;4483279;32;20101;-78
2022/09/11 02:51:49;;;;;;;1.30;0.77;;;;;;;12.32;100.00;98469.97;4484523;32;20104;-78
2022/09/11 02:54:32;;;;;;;2.70;0.98;;;;;;;12.31;100.00;98476.19;4482925;32;20122;-78
2022/09/11 02:57:18;;;;;;;1.80;0.82;;;;;;;12.33;100.00;98474.25;4484013;31;20555;-78
2022/09/11 02:59:52;;;;;;;2.10;1.00;;;;;;;12.31;100.00;98474.41;4482718;32;20120;-78
2022/09/11 03:02:19;;;;;;;0.73;0.57;;;;;;;12.29;100.00;98478.16;4483139;32;20176;-78
2022/09/11 03:04:48;;;;;;;1.87;1.00;;;;;;;12.30;100.00;98474.56;4484092;31;20488;-78
2022/09/11 03:07:15;;;;;;;1.77;1.20;;;;;;;12.28;100.00;98485.22;4493883;31;20554;-78
2022/09/11 03:09:43;;;;;;;2.40;1.00;;;;;;;12.30;100.00;98471.94;4499902;31;20091;-78
2022/09/11 03:12:12;;;;;;;1.50;0.85;;;;;;;12.29;100.00;98473.72;4499943;31;20155;-78
2022/09/11 03:14:39;;;;;;;2.00;1.00;;;;;;;12.36;100.00;98476.56;4499554;31;20100;-78
2022/09/11 03:17:07;;;;;;;3.08;1.40;;;;;;;12.38;100.00;98471.97;4499813;31;20449;-78
2022/09/11 03:19:35;;;;;;;2.12;1.10;;;;;;;12.38;100.00;98475.44;4498416;31;20765;-78
2022/09/11 03:22:02;;;;;;;2.33;1.00;;;;;;;12.45;100.00;98475.63;4499867;31;20524;-78
2022/09/11 03:24:29;;;;;;;2.53;0.85;;;;;;;12.54;100.00;98472.06;4499396;31;20133;-78
2022/09/11 03:26:58;;;;;;;1.55;1.00;;;;;;;12.58;100.00;98481.28;4499650;31;20599;-78
2022/09/11 03:29:26;;;;;;;4.18;1.80;;;;;;;12.60;100.00;98476.69;4501471;31;20477;-78
2022/09/11 03:31:57;;;;;;;2.05;1.10;;;;;;;12.64;100.00;98479.00;4501808;31;20643;-78
2022/09/11 03:34:25;;;;;;;2.08;1.02;;;;;;;12.67;100.00;98478.69;4501675;31;20532;-78
2022/09/11 03:36:52;;;;;;;1.58;1.08;;;;;;;12.71;100.00;98474.78;4501748;31;20469;-78
2022/09/11 03:39:19;;;;;;;3.42;1.17;;;;;;;12.64;100.00;98476.37;4501899;31;20118;-78
2022/09/11 03:41:46;;;;;;;1.62;1.05;;;;;;;12.63;100.00;98479.97;4501776;31;20123;-78
2022/09/11 03:44:13;;;;;;;1.30;0.85;;;;;;;12.59;100.00;98488.19;4501632;31;20088;-78
2022/09/11 03:46:40;;;;;;;3.30;1.25;;;;;;;12.59;100.00;98482.09;4501585;31;20099;-78
2022/09/11 03:49:08;;;;;;;2.97;1.30;;;;;;;12.56;100.00;98492.94;4501741;31;20092;-78
2022/09/11 03:51:35;;;;;;;2.33;1.35;;;;;;;12.60;100.00;98484.56;4500449;31;20163;-78
2022/09/11 03:54:03;;;;;;;1.65;1.20;;;;;;;12.61;100.00;98485.38;4501928;31;20171;-78
2022/09/11 03:56:31;;;;;;;2.10;1.40;;;;;;;12.54;100.00;98484.37;4501684;31;20096;-78
2022/09/11 03:59:02;;;;;;;4.07;1.10;;;;;;;12.56;100.00;98483.22;4501251;31;20115;-78
2022/09/11 04:01:29;;;;;;;1.77;1.30;;;;;;;12.57;100.00;98482.25;4501487;31;20096;-78
2022/09/11 04:03:56;;;;;;;3.40;1.30;;;;;;;12.55;100.00;98476.34;4500666;31;20401;-78
2022/09/11 04:06:24;;;;;;;3.37;1.40;;;;;;;12.58;100.00;98477.81;4489902;31;20096;-78
2022/09/11 04:08:52;;;;;;;2.50;1.40;;;;;;;12.59;100.00;98477.66;4501626;31;20151;-78
2022/09/11 04:11:20;;;;;;;1.55;1.20;;;;;;;12.66;100.00;98485.75;4501613;31;20434;-78
2022/09/11 04:13:48;;;;;;;1.55;1.20;;;;;;;12.65;100.00;98484.09;4501759;31;20159;-78
2022/09/11 04:16:19;;;;;;;1.65;1.30;;;;;;;12.64;100.00;98490.34;4501514;31;20444;-78
2022/09/11 04:18:48;;;;;;;2.35;1.10;;;;;;;12.71;100.00;98486.09;4501703;31;20107;-78
2022/09/11 04:21:17;;;;;;;2.37;1.20;;;;;;;12.72;100.00;98490.38;4501612;31;20536;-78
2022/09/11 04:23:44;;;;;;;1.83;1.00;;;;;;;12.73;100.00;98494.66;4501774;31;20512;-78
2022/09/11 04:26:19;;;;;;;2.10;1.23;;;;;;;12.78;100.00;98500.25;4499714;31;20180;-78
2022/09/11 04:28:47;;;;;;;2.72;1.02;;;;;;;12.70;100.00;98502.88;4501459;31;20532;-78
2022/09/11 04:31:16;;;;;;;3.97;1.50;;;;;;;12.61;100.00;98506.41;4501081;31;20157;-78
2022/09/11 04:33:44;;;;;;;2.00;1.10;;;;;;;12.59;100.00;98503.12;4501502;31;20432;-78
2022/09/11 04:36:17;;;;;;;2.00;1.30;;;;;;;12.62;100.00;98508.06;4501477;31;20200;-78
2022/09/11 04:38:46;;;;;;;1.80;1.30;;;;;;;12.60;100.00;98507.41;4501268;31;20084;-78
2022/09/11 04:41:15;;;;;;;1.40;1.08;;;;;;;12.53;100.00;98509.81;4501587;31;20116;-78
2022/09/11 04:43:43;;;;;;;1.90;1.00;;;;;;;12.49;100.00;98513.75;4501637;31;20462;-78
2022/09/11 04:46:13;;;;;;;2.50;0.93;;;;;;;12.50;100.00;98510.13;4501329;31;20148;-78
2022/09/11 04:48:45;;;;;;;1.98;1.10;;;;;;;12.49;100.00;98518.16;4501662;31;20079;-78
2022/09/11 04:51:20;;;;;;;1.95;1.10;;;;;;;12.53;100.00;98517.72;4501220;31;20092;-78
2022/09/11 04:53:48;;;;;;;2.35;1.48;;;;;;;12.50;100.00;98512.75;4500320;31;20126;-78
2022/09/11 04:56:16;;;;;;;2.55;1.20;;;;;;;12.51;100.00;98517.03;4501140;31;20139;-78
2022/09/11 04:58:43;;;;;;;3.20;1.25;;;;;;;12.47;100.00;98502.56;4501265;31;20477;-78
2022/09/11 05:01:14;;;;;;;2.20;1.30;;;;;;;12.51;100.00;98509.16;4501089;31;20487;-78
2022/09/11 05:03:44;;;;;;;2.78;1.30;;;;;;;12.49;100.00;98500.63;4501501;31;20400;-78
2022/09/11 05:06:15;;;;;;;1.55;1.20;;;;;;;12.53;100.00;98503.75;4488181;31;20096;-78
2022/09/11 05:08:43;;;;;;;2.80;1.30;;;;;;;12.53;100.00;98515.06;4501216;31;20084;-78
2022/09/11 05:11:16;;;;;;;2.05;1.25;;;;;;;12.63;100.00;98501.84;4501449;31;20757;-78
2022/09/11 05:13:43;;;;;;;1.67;1.27;;;;;;;12.66;100.00;98508.59;4501365;31;20483;-78
2022/09/11 05:16:15;;;;;;;1.50;1.10;;;;;;;12.68;100.00;98509.25;4501071;31;20107;-78
2022/09/11 05:18:50;;;;;;;1.42;1.00;;;;;;;12.78;100.00;98517.84;4501034;31;20084;-78
2022/09/11 05:21:21;;;;;;;1.67;1.20;;;;;;;12.83;100.00;98518.19;4499867;31;20109;-78
2022/09/11 05:23:58;;;;;;;2.22;0.82;;;;;;;12.85;100.00;98524.09;4501300;31;20111;-78
2022/09/11 05:26:31;;;;;;;2.50;1.05;;;;;;;12.84;100.00;98530.37;4500763;31;20102;-78
2022/09/11 05:29:01;;;;;;;2.67;1.70;;;;;;;12.87;100.00;98530.03;4500777;31;20343;-78
2022/09/11 05:31:30;;;;;;;3.03;2.08;;;;;;;12.91;100.00;98539.28;4501019;31;20095;-78
2022/09/11 05:33:59;;;;;;;3.92;1.67;;;;;;;12.92;100.00;98530.37;4501234;31;20100;-78
2022/09/11 05:36:27;;;;;;;5.75;2.05;;;;;;;12.96;100.00;98542.25;4501105;31;20118;-78
2022/09/11 05:38:54;;;;;;;4.47;1.48;;;;;;;12.98;100.00;98538.63;4501205;31;20198;-78
2022/09/11 05:41:22;;;;;;;4.22;1.55;;;;;;;13.03;100.00;98536.34;4501017;31;20095;-78
2022/09/11 05:43:50;;;;;;;6.05;1.77;;;;;;;13.06;100.00;98536.03;4501069;31;20893;-78
2022/09/11 05:46:18;;;;;;;2.45;1.27;;;;;;;13.19;100.00;98536.41;4501036;31;20096;-78
2022/09/11 05:48:47;;;;;;;2.10;1.50;;;;;;;13.34;100.00;98533.19;4500901;31;20095;-78
2022/09/11 05:51:18;;;;;;;4.62;1.10;;;;;;;13.42;100.00;98541.12;4499773;31;20096;-78
2022/09/11 05:53:46;;;;;;;2.78;1.10;;;;;;;13.53;100.00;98539.97;4500724;31;20111;-78
2022/09/11 05:56:22;;;;;;;1.65;1.23;;;;;;;13.62;100.00;98552.16;4500843;31;20090;-78
2022/09/11 05:58:51;;;;;;;2.33;1.12;;;;;;;13.82;100.00;98547.41;4500616;31;20130;-78
2022/09/11 06:01:24;;;;;;;3.17;1.70;;;;;;;13.93;100.00;98549.75;4500707;31;20122;-78
2022/09/11 06:03:53;;;;;;;;;;;;;;;14.05;100.00;98552.03;4500421;31;20578;-78
2022/09/11 06:06:22;;;;;;;2.15;1.10;;;;;;;14.10;100.00;98562.91;4483543;31;160684;-78
2022/09/11 06:08:50;;;;;;;2.20;0.80;;;;;;;14.22;100.00;98566.00;4500296;31;20130;-78
2022/09/11 06:11:19;;;;;;;2.53;0.70;;;;;;;14.31;100.00;98571.13;4500908;31;20092;-78
2022/09/11 06:13:48;;;;;;;0.95;0.80;;;;;;;14.39;100.00;98565.03;4500634;31;20453;-78
2022/09/11 06:16:20;;;;;;;1.27;0.85;;;;;;;14.48;100.00;98563.22;4500610;31;20123;-78
2022/09/11 06:18:48;;;;;;;2.83;0.80;;;;;;;14.69;100.00;98570.63;4500644;31;20446;-78
2022/09/11 06:21:28;;;;;;;0.70;0.60;;;;;;;14.84;100.00;98568.94;4500924;31;20502;-78
2022/09/11 06:23:56;;;;;;;1.00;0.62;;;;;;;14.97;100.00;98572.84;4500839;31;20092;-78
2022/09/11 06:26:25;;;;;;;2.12;0.70;;;;;;;15.15;100.00;98567.34;4500681;31;20123;-78
2022/09/11 06:28:53;;;;;;;1.37;1.00;;;;;;;15.06;100.00;98569.19;4500270;31;20203;-78
2022/09/11 06:31:24;;;;;;;0.80;0.73;;;;;;;15.01;100.00;98560.97;4500317;31;20100;-78
2022/09/11 06:33:52;;;;;;;1.83;0.70;;;;;;;15.13;100.00;98567.50;4500626;31;20137;-79
2022/09/11 06:36:25;;;;;;;2.40;0.70;;;;;;;15.21;100.00;98566.66;4500290;31;20101;-78
2022/09/11 06:38:53;;;;;;;;;;;;;;;15.42;100.00;98569.50;4500704;31;20080;-78
2022/09/11 06:41:22;;;;;;;1.25;1.00;;;;;;;15.64;100.00;98563.59;4500573;31;19983;-78
2022/09/11 06:43:51;;;;;;;2.53;0.80;;;;;;;15.78;100.00;98562.91;4499127;31;20159;-78
2022/09/11 06:46:21;;;;;;;2.25;1.00;;;;;;;15.90;98.76;98560.69;4500468;31;20095;-78
2022/09/11 06:48:49;;;;;;;3.65;0.70;;;;;;;15.88;100.00;98549.44;4500018;31;20092;-78
2022/09/11 06:51:18;;;;;;;1.00;0.93;;;;;;;15.93;99.04;98555.03;4500352;31;20501;-78
2022/09/11 06:53:52;;;;;;;;;;;;;;;16.13;99.43;98558.00;4500415;31;20076;-78
2022/09/11 06:56:21;;;;;;;0.73;0.60;;;;;;;16.19;97.73;98551.19;4499851;31;19999;-78
2022/09/11 06:58:49;;;;;;;0.75;0.70;;;;;;;16.12;97.43;98557.19;4499689;31;20281;-78
2022/09/11 07:01:18;;;;;;;0.60;0.52;;;;;;;16.16;95.99;98543.63;4500176;31;20100;-78
2022/09/11 07:03:49;;;;;;;1.05;0.68;;;;;;;16.15;96.21;98545.44;4502100;31;20636;-78
2022/09/11 07:06:19;;;;;;;1.00;0.68;;;;;;;16.51;92.83;98550.06;4489403;31;20118;-78
2022/09/11 07:08:56;;;;;;;0.90;0.70;;;;;;;16.61;91.66;98550.63;4501685;31;20099;-77
2022/09/11 07:11:23;;;;;;;1.95;0.60;;;;;;;16.55;91.32;98547.88;4500751;31;20158;-78
2022/09/11 07:13:50;;;;;;;2.58;0.60;;;;;;;16.58;94.29;98544.84;4502122;31;20103;-78
2022/09/11 07:16:18;;;;;;;1.85;0.85;;;;;;;16.59;92.53;98549.16;4502031;31;20532;-78
2022/09/11 07:18:47;;;;;;;1.10;0.70;;;;;;;16.47;91.63;98544.31;4501973;31;20637;-78
2022/09/11 07:21:20;;;;;;;0.95;0.70;;;;;;;16.52;93.88;98545.59;4502006;31;20100;-78
2022/09/11 07:23:53;;;;;;;2.92;0.70;;;;;;;16.68;92.23;98537.47;4501993;31;20110;-78
2022/09/11 07:26:22;;;;;;;4.03;0.95;;;;;;;16.74;91.68;98536.75;4501998;31;20095;-78
2022/09/11 07:28:51;;;;;;;1.42;0.93;;;;;;;16.48;92.37;98538.00;4501704;31;20151;-78
2022/09/11 07:31:20;;;;;;;0.65;0.65;;;;;;;16.61;93.60;98529.47;4501790;31;20092;-78
2022/09/11 07:33:49;;;;;;;1.55;0.65;;;;;;;16.70;92.50;98530.19;4501503;31;20118;-78
2022/09/11 07:36:25;;;;;;;2.42;0.88;;;;;;;16.93;92.66;98529.31;4502077;31;20201;-78
2022/09/11 07:38:53;;;;;;;1.20;0.90;;;;;;;17.06;92.25;98542.69;4501684;31;20075;-78
2022/09/11 07:41:22;;;;;;;1.35;0.90;;;;;;;17.09;88.80;98525.62;4501987;31;20119;-78
2022/09/11 07:43:55;;;;;;;1.50;0.82;;;;;;;17.18;87.63;98530.66;4501923;31;20454;-78
2022/09/11 07:46:25;;;;;;;1.20;0.90;;;;;;;17.34;87.68;98529.59;4501770;31;20370;-78
2022/09/11 07:48:56;;;;;;;0.82;0.80;;;;;;;17.55;87.23;98530.66;4501819;31;20593;-78
2022/09/11 07:51:25;;;;;;;0.80;0.70;;;;;;;17.21;86.41;98529.44;4502047;31;20114;-78
2022/09/11 07:53:55;;;;;;;1.15;0.80;;;;;;;17.22;88.35;98533.72;4501773;31;20118;-78
2022/09/11 07:56:24;;;;;;;2.75;1.10;;;;;;;17.51;86.47;98538.13;4501624;31;20139;-78
2022/09/11 07:58:53;;;;;;;0.73;0.73;;;;;;;17.84;84.01;98539.47;4501192;31;20092;-78
2022/09/11 08:01:24;;;;;;;1.55;0.70;;;;;;;18.02;83.55;98544.38;4501467;31;20095;-78
2022/09/11 08:03:59;;;;;;;0.93;0.60;;;;;;;17.85;82.96;98541.94;4501242;31;20115;-78
2022/09/11 08:06:29;;;;;;;1.33;0.77;;;;;;;17.69;85.33;98540.34;4490173;31;20114;-78
2022/09/11 08:09:00;;;;;;;2.35;0.70;;;;;;;17.71;84.97;98534.88;4501407;31;20142;-77
2022/09/11 08:11:33;;;;;;;0.93;0.62;;;;;;;17.62;85.64;98546.59;4501705;31;20149;-78
2022/09/11 08:14:01;;;;;;;1.37;0.70;;;;;;;17.82;85.58;98534.38;4500855;31;20103;-78
2022/09/11 08:16:28;;;;;;;0.65;0.50;;;;;;;18.16;84.70;98532.84;4501442;31;20088;-78
2022/09/11 08:18:56;;;;;;;1.23;1.00;;;;;;;18.16;84.23;98540.81;4501411;31;20096;-78
2022/09/11 08:21:25;;;;;;;1.30;0.70;;;;;;;18.35;86.73;98541.97;4501500;31;20092;-78
2022/09/11 08:23:52;;;;;;;0.60;0.60;;;;;;;18.47;82.56;98538.78;4501343;31;20107;-78
2022/09/11 08:26:20;;;;;;;0.60;0.60;;;;;;;18.44;83.65;98532.88;4501573;31;20867;-78
2022/09/11 08:28:50;;;;;;;2.22;0.70;;;;;;;18.41;82.84;98538.56;4501416;31;20723;-78
2022/09/11 08:31:20;;;;;;;1.37;0.95;;;;;;;18.03;81.78;98538.03;4501316;31;20091;-78
2022/09/11 08:33:49;;;;;;;1.12;0.60;;;;;;;18.16;81.12;98535.50;4501705;31;20092;-78
2022/09/11 08:36:17;;;;;;;0.70;0.70;;;;;;;18.20;81.85;98528.81;4501161;31;20091;-78
2022/09/11 08:38:45;;;;;;;1.77;0.70;;;;;;;18.71;81.40;98542.81;4501578;31;20472;-78
2022/09/11 08:41:13;;;;;;;1.48;0.80;;;;;;;18.68;79.70;98540.56;4501419;31;20130;-78
2022/09/11 08:43:49;;;;;;;0.68;0.57;;;;;;;18.60;80.31;98538.88;4501621;31;20108;-78
2022/09/11 08:46:19;;;;;;;1.15;0.60;;;;;;;19.08;80.23;98538.16;4501480;31;20155;-78
2022/09/11 08:49:12;;;;;;;1.80;0.75;;;;;;;19.44;77.44;98529.06;4499896;31;20079;-78
2022/09/11 08:51:41;;;;;;;0.62;0.50;;;;;;;19.73;75.81;98540.38;4501338;31;20088;-78
2022/09/11 08:54:19;;;;;;;1.50;0.90;;;;;;;19.52;75.42;98542.19;4500102;31;20585;-78
2022/09/11 08:56:49;;;;;;;1.65;0.62;;;;;;;19.06;76.31;98537.50;4500235;31;20129;-78
2022/09/11 08:59:25;;;;;;;0.50;0.40;;;;;;;19.03;79.23;98544.06;4501102;31;20100;-78
2022/09/11 09:02:37;;;;;;;3.00;0.62;;;;;;;18.82;78.61;98547.59;4501381;31;20335;-78
2022/09/11 09:05:15;;;;;;;0.90;0.70;;;;;;;18.75;79.56;98533.47;4492789;31;20100;-78
2022/09/11 09:08:08;;;;;;;0.88;0.65;;;;;;;18.85;78.93;98544.56;4484472;32;20096;-78
2022/09/11 09:10:49;;;;;;;;;;;;;;;19.39;77.29;98539.47;4451557;32;20106;-78
2022/09/11 09:13:35;;;;;;;1.33;0.60;;;;;;;19.78;75.15;98538.78;4439379;32;20019;-78
2022/09/11 09:16:19;;;;;;;0.65;0.40;;;;;;;20.20;70.96;98535.94;4451444;32;20181;-78
2022/09/11 09:18:51;;;;;;;1.62;0.50;;;;;;;20.34;70.92;98534.09;4439073;32;20081;-78
2022/09/11 09:21:34;;;;;;;1.08;0.70;;;;;;;20.29;70.28;98533.91;4451624;32;20128;-78
2022/09/11 09:24:04;;;;;;;2.87;0.55;;;;;;;20.16;70.80;98537.37;4439176;32;20124;-78
2022/09/11 09:26:38;;;;;;;1.67;0.60;;;;;;;19.95;71.29;98536.53;4437652;32;20118;-78
2022/09/11 09:29:12;;;;;;;0.75;0.55;;;;;;;19.92;71.59;98534.28;4451500;32;20117;-78
2022/09/11 09:31:41;;;;;;;2.62;0.70;;;;;;;19.72;72.33;98542.22;4451679;32;20139;-78
2022/09/11 09:34:16;;;;;;;1.35;0.50;;;;;;;19.53;72.73;98549.12;4451813;32;20109;-78
2022/09/11 09:37:21;;;;;;;1.50;0.70;;;;;;;19.37;73.75;98544.19;4438746;32;20176;-78
2022/09/11 09:39:49;;;;;;;1.30;0.80;;;;;;;19.42;71.45;98536.41;4451257;32;20100;-78
2022/09/11 09:42:20;;;;;;;2.35;0.52;;;;;;;19.20;72.47;98541.88;4451286;32;20081;-78
2022/09/11 09:44:56;;;;;;;1.77;0.70;;;;;;;19.12;73.14;98544.69;4451774;32;20209;-78
2022/09/11 09:47:23;;;;;;;0.60;0.60;;;;;;;19.19;nan;98542.06;4464344;32;20168;-78
2022/09/11 09:49:51;;;;;;;2.28;0.70;;;;;;;19.59;73.14;98524.41;4485341;31;20092;-78
2022/09/11 09:52:23;;;;;;;2.92;0.80;;;;;;;19.99;72.53;98531.66;4484930;31;20110;-78
2022/09/11 09:54:59;;;;;;;0.60;0.60;;;;;;;20.16;70.04;98532.88;4484924;31;20100;-78
2022/09/11 09:57:30;;;;;;;0.60;0.60;;;;;;;20.19;69.11;98526.31;4484886;32;20448;-78
2022/09/11 10:00:05;;;;;;;1.00;0.52;;;;;;;20.19;67.74;98526.31;4485026;31;20115;-78
2022/09/11 10:02:43;;;;;;;1.20;0.80;;;;;;;20.16;68.69;98535.53;4484962;31;20088;-78
2022/09/11 10:05:24;;;;;;;0.73;0.70;;;;;;;20.16;69.93;98526.75;4493920;31;20264;-78
2022/09/11 10:07:53;;;;;;;0.70;0.60;;;;;;;20.35;71.12;98525.91;4485709;31;20227;-78
2022/09/11 10:10:27;;;;;;;2.47;0.88;;;;;;;20.15;68.04;98536.56;4484670;31;20093;-78
2022/09/11 10:12:56;;;;;;;0.60;0.60;;;;;;;19.90;69.57;98533.69;4483650;32;20503;-79
2022/09/11 10:15:44;;;;;;;1.12;0.90;;;;;;;19.59;71.26;98545.69;4483874;32;20202;-78
2022/09/11 10:18:39;;;;;;;2.53;1.12;;;;;;;19.17;72.08;98544.09;4484871;31;20115;-78
2022/09/11 10:21:12;;;;;;;1.05;0.70;;;;;;;19.04;73.45;98540.38;4484448;31;20131;-78
2022/09/11 10:24:01;;;;;;;1.60;0.98;;;;;;;18.94;76.12;98540.75;4484716;31;20068;-78
2022/09/11 10:26:37;;;;;;;2.37;1.33;;;;;;;18.57;75.68;98539.25;4483319;32;20169;-78
2022/09/11 10:29:12;;;;;;;1.40;1.17;;;;;;;18.44;77.72;98540.00;4484494;31;20093;-78
2022/09/11 10:31:47;;;;;;;1.10;1.00;;;;;;;18.49;79.09;98534.12;4484347;31;20084;-78
2022/09/11 10:34:16;;;;;;;1.02;0.90;;;;;;;18.48;78.50;98535.94;4483500;32;20088;-78
2022/09/11 10:36:55;;;;;;;1.00;0.90;;;;;;;18.53;79.59;98538.84;4483804;32;20473;-78
2022/09/11 10:39:24;;;;;;;3.03;0.90;;;;;;;18.51;79.95;98540.84;4486314;31;20076;-78
2022/09/11 10:41:55;;;;;;;1.35;0.70;;;;;;;18.48;79.89;98541.25;4485030;32;20119;-78
2022/09/11 10:44:23;;;;;;;1.35;0.95;;;;;;;18.42;79.96;98526.09;4485409;32;20408;-78
2022/09/11 10:47:14;;;;;;;2.45;0.90;;;;;;;18.36;79.18;98532.19;4486140;31;20398;-78
2022/09/11 10:49:43;;;;;;;1.33;0.70;;;;;;;18.53;80.35;98530.87;4437088;32;20273;-78
2022/09/11 10:52:10;;;;;;;1.45;0.93;;;;;;;18.75;78.12;98525.50;4436868;32;20264;-78
2022/09/11 10:54:36;;;;;;;1.65;0.90;;;;;;;18.91;77.33;98524.38;4437139;32;20093;-78
2022/09/11 10:57:19;;;;;;;3.22;1.15;;;;;;;19.04;75.67;98523.63;4436829;32;20188;-78
2022/09/11 11:00:01;;;;;;;2.45;1.10;;;;;;;18.72;76.63;98525.88;4436851;32;20208;-78
2022/09/11 11:02:33;;;;;;;1.75;1.23;;;;;;;18.61;76.93;98520.09;4437058;32;20101;-78
2022/09/11 11:05:04;;;;;;;3.42;1.40;;;;;;;18.73;77.02;98525.69;4444709;32;20118;-78
2022/09/11 11:07:44;;;;;;;1.48;0.98;;;;;;;18.88;77.88;98519.44;4441081;32;20205;-78
2022/09/11 11:10:35;;;;;;;1.98;1.08;;;;;;;19.02;76.13;98512.38;4437083;32;20126;-78
2022/09/11 11:13:30;;;;;;;1.55;1.05;;;;;;;19.22;75.30;98512.47;4436574;32;20458;-78
2022/09/11 11:16:09;;;;;;;1.20;1.10;;;;;;;19.26;75.13;98517.16;4436822;32;20111;-78
2022/09/11 11:18:55;;;;;;;1.05;0.82;;;;;;;19.07;74.69;98518.72;4436967;32;20127;-78
2022/09/11 11:21:47;;;;;;;2.55;0.77;;;;;;;19.49;73.36;98516.00;4436917;32;20124;-78
2022/09/11 11:24:34;;;;;;;1.45;0.60;;;;;;;19.64;68.41;98499.91;4436927;32;20630;-78
2022/09/11 11:27:38;;;;;;;0.70;0.60;;;;;;;19.47;67.65;98512.72;4464415;32;20088;-78
2022/09/11 11:30:11;;;;;;;2.05;0.70;;;;;;;19.41;68.29;98519.66;4485770;31;20126;-78
2022/09/11 11:33:02;;;;;;;2.72;0.68;;;;;;;19.26;68.82;98522.47;4486001;32;20076;-78
2022/09/11 11:35:44;;;;;;;0.60;0.60;;;;;;;19.32;70.30;98513.72;4485967;32;20177;-78
2022/09/11 11:38:28;;;;;;;0.60;0.60;;;;;;;19.47;71.86;98512.72;4484855;32;20174;-78
2022/09/11 11:41:19;;;;;;;0.85;0.65;;;;;;;19.56;70.85;98511.53;4484525;32;20438;-78
2022/09/11 11:43:47;;;;;;;1.08;0.75;;;;;;;19.35;70.74;98514.31;4484568;32;20162;-78
2022/09/11 11:46:17;;;;;;;0.82;0.70;;;;;;;19.19;71.49;98505.69;4484621;32;20454;-78
2022/09/11 11:49:02;;;;;;;2.72;0.73;;;;;;;19.30;71.03;98514.94;4485098;31;20097;-78
2022/09/11 11:51:49;;;;;;;1.08;0.73;;;;;;;19.55;70.75;98506.44;4484745;32;20168;-78
2022/09/11 11:54:24;;;;;;;0.45;0.45;;;;;;;20.19;71.17;98507.72;4485846;31;20431;-78
2022/09/11 11:56:53;;;;;;;1.12;0.62;;;;;;;20.37;65.06;98499.91;4484411;32;20115;-78